Time;durP1;ratioP1;P1;durP2;ratioP2;P2;SDS_P1;SDS_P2;PMS_P1;PMS_P2;Temp;Humidity;BMP_temperature;BMP_pressure;BME280_temperature;BME280_humidity;BME280_pressure;Samples;Min_cycle;Max_cycle;Signal;HPM_P1;HPM_P2
2020/12/18 00:01:07;;;;;;;21.55;11.85;;;5.60;96.60;;;;;;5046166;28;20029;-68
2020/12/18 00:03:33;;;;;;;23.33;12.38;;;5.60;96.60;;;;;;5042165;28;21183;-68
2020/12/18 00:05:58;;;;;;;20.63;11.63;;;5.50;96.50;;;;;;5049699;28;20104;-68
2020/12/18 00:08:24;;;;;;;26.88;13.30;;;5.50;96.70;;;;;;5046801;28;20358;-68
2020/12/18 00:10:50;;;;;;;27.25;12.05;;;5.40;96.60;;;;;;5045286;28;20044;-66
2020/12/18 00:13:15;;;;;;;24.67;12.63;;;5.40;96.60;;;;;;5038930;28;20029;-66
2020/12/18 00:15:41;;;;;;;26.40;12.93;;;5.30;96.70;;;;;;5047370;28;20108;-68
2020/12/18 00:18:07;;;;;;;27.98;13.25;;;5.30;96.70;;;;;;5042119;28;20021;-67
2020/12/18 00:20:32;;;;;;;27.25;14.15;;;5.20;96.70;;;;;;5045190;28;20163;-68
2020/12/18 00:22:58;;;;;;;31.40;13.70;;;5.10;96.70;;;;;;5044671;28;20341;-67
2020/12/18 00:25:23;;;;;;;35.47;15.68;;;5.10;96.90;;;;;;5046520;28;20032;-67
2020/12/18 00:27:49;;;;;;;34.03;15.75;;;5.20;97.00;;;;;;5051950;28;20017;-67
2020/12/18 00:30:15;;;;;;;31.27;16.63;;;5.20;97.10;;;;;;5046422;28;20622;-67
2020/12/18 00:32:41;;;;;;;33.72;17.77;;;5.20;97.10;;;;;;5045389;28;20054;-68
2020/12/18 00:35:09;;;;;;;37.05;17.77;;;5.30;97.20;;;;;;5044270;28;20035;-67
2020/12/18 00:37:35;;;;;;;39.90;17.05;;;5.30;97.10;;;;;;5046086;28;20249;-67
2020/12/18 00:40:02;;;;;;;33.10;17.75;;;5.30;97.00;;;;;;5046422;28;20195;-68
2020/12/18 00:42:28;;;;;;;31.17;17.67;;;5.30;97.00;;;;;;5034819;28;20026;-67
2020/12/18 00:44:54;;;;;;;34.47;17.38;;;5.30;97.00;;;;;;5049452;28;20039;-67
2020/12/18 00:47:20;;;;;;;32.65;18.05;;;5.30;96.90;;;;;;5043978;28;20025;-67
2020/12/18 00:49:45;;;;;;;30.50;17.58;;;5.30;96.90;;;;;;5049942;28;20035;-67
2020/12/18 00:52:11;;;;;;;34.92;18.85;;;5.40;96.90;;;;;;5043748;28;20073;-68
2020/12/18 00:54:36;;;;;;;30.73;17.80;;;5.60;96.90;;;;;;5050933;28;20107;-67
2020/12/18 00:57:02;;;;;;;28.42;16.13;;;5.60;96.70;;;;;;5046458;28;20083;-67
2020/12/18 00:59:28;;;;;;;24.60;15.38;;;5.70;96.40;;;;;;5047478;28;20028;-68
2020/12/18 01:02:00;;;;;;;29.85;15.32;;;5.70;96.40;;;;;;5049248;28;20025;-67
2020/12/18 01:04:26;;;;;;;27.02;14.23;;;5.70;96.30;;;;;;5057767;28;20040;-67
2020/12/18 01:06:53;;;;;;;25.45;14.25;;;5.80;96.20;;;;;;5042700;28;20601;-67
2020/12/18 01:09:20;;;;;;;24.88;13.55;;;5.80;96.00;;;;;;5041249;28;20486;-67
2020/12/18 01:11:45;;;;;;;19.33;13.05;;;5.80;95.90;;;;;;5047172;28;20040;-66
2020/12/18 01:14:11;;;;;;;22.55;13.07;;;5.90;95.60;;;;;;5048392;28;20489;-67
2020/12/18 01:16:37;;;;;;;20.33;12.55;;;5.90;95.60;;;;;;5036612;28;20033;-67
2020/12/18 01:19:03;;;;;;;20.52;13.10;;;5.90;95.60;;;;;;5050194;28;20033;-67
2020/12/18 01:21:29;;;;;;;20.52;12.40;;;5.90;95.70;;;;;;5041032;28;20491;-68
2020/12/18 01:23:54;;;;;;;24.20;13.07;;;6.00;95.40;;;;;;5045889;28;20029;-67
2020/12/18 01:26:20;;;;;;;18.75;12.57;;;6.00;95.30;;;;;;5044915;28;20466;-67
2020/12/18 01:28:45;;;;;;;17.73;12.60;;;6.00;95.10;;;;;;5044469;28;20063;-66
2020/12/18 01:31:11;;;;;;;22.52;13.00;;;6.00;95.20;;;;;;5044518;28;20390;-67
2020/12/18 01:33:37;;;;;;;16.08;11.65;;;6.10;95.20;;;;;;5047442;28;20051;-67
2020/12/18 01:36:02;;;;;;;20.13;11.48;;;6.00;95.10;;;;;;5046557;28;20037;-67
2020/12/18 01:38:28;;;;;;;19.83;11.98;;;6.00;95.20;;;;;;5043433;28;20446;-67
2020/12/18 01:40:53;;;;;;;21.98;11.40;;;6.10;94.80;;;;;;5045319;28;20033;-67
2020/12/18 01:43:19;;;;;;;16.80;11.35;;;6.00;95.00;;;;;;5041453;28;20178;-67
2020/12/18 01:45:45;;;;;;;21.13;12.20;;;6.00;94.90;;;;;;5050010;28;20020;-68
2020/12/18 01:48:12;;;;;;;21.60;11.45;;;5.80;95.10;;;;;;5040387;28;20028;-67
2020/12/18 01:50:37;;;;;;;20.73;11.55;;;5.80;95.10;;;;;;5052632;28;20445;-68
2020/12/18 01:53:03;;;;;;;16.48;11.98;;;5.70;95.00;;;;;;5045969;28;20134;-67
2020/12/18 01:55:29;;;;;;;18.20;12.23;;;5.70;95.30;;;;;;5051453;28;20036;-67
2020/12/18 01:57:55;;;;;;;19.63;12.30;;;5.70;95.40;;;;;;5043504;28;20025;-67
2020/12/18 02:00:21;;;;;;;21.20;12.63;;;5.70;95.40;;;;;;5046970;28;20136;-67
2020/12/18 02:02:47;;;;;;;21.58;12.65;;;5.70;95.60;;;;;;5044129;28;20071;-66
2020/12/18 02:05:14;;;;;;;19.05;12.95;;;5.60;95.50;;;;;;5035877;28;20025;-68
2020/12/18 02:07:48;;;;;;;30.10;12.93;;;5.60;95.60;;;;;;5046937;28;20028;-69
2020/12/18 02:10:14;;;;;;;21.08;13.35;;;5.50;95.50;;;;;;5039335;28;20037;-67
2020/12/18 02:12:40;;;;;;;23.80;12.90;;;5.40;95.60;;;;;;5071998;22;20516;-68
2020/12/18 02:15:05;;;;;;;21.65;14.57;;;5.30;95.80;;;;;;5084728;28;20397;-68
2020/12/18 02:17:31;;;;;;;27.13;16.10;;;5.40;96.00;;;;;;5084389;28;20141;-68
2020/12/18 02:19:57;;;;;;;25.13;15.00;;;5.40;95.90;;;;;;5086432;28;20052;-68
2020/12/18 02:22:24;;;;;;;24.60;14.27;;;5.50;96.00;;;;;;5079667;28;20048;-67
2020/12/18 02:25:00;;;;;;;24.17;14.15;;;5.50;95.80;;;;;;5066145;28;20386;-68
2020/12/18 02:27:26;;;;;;;23.83;14.57;;;5.50;95.80;;;;;;5063478;28;20033;-68
2020/12/18 02:29:52;;;;;;;24.00;15.10;;;5.60;95.80;;;;;;5064777;28;20247;-68
2020/12/18 02:32:18;;;;;;;23.05;14.55;;;5.60;95.60;;;;;;5064659;28;20050;-68
2020/12/18 02:34:44;;;;;;;22.02;13.63;;;5.60;95.50;;;;;;5066702;28;20036;-68
2020/12/18 02:37:09;;;;;;;23.67;14.57;;;5.70;95.20;;;;;;5063785;28;20033;-68
2020/12/18 02:39:35;;;;;;;24.02;14.30;;;5.80;95.20;;;;;;5064805;28;20098;-68
2020/12/18 02:42:01;;;;;;;21.55;14.13;;;5.80;95.20;;;;;;5062990;28;20033;-68
2020/12/18 02:44:27;;;;;;;21.10;13.10;;;5.90;94.90;;;;;;5065924;28;20081;-69
2020/12/18 02:46:52;;;;;;;18.23;12.80;;;5.90;94.70;;;;;;5065536;28;20484;-69
2020/12/18 02:49:18;;;;;;;19.52;12.68;;;5.80;94.80;;;;;;5064655;28;20024;-68
2020/12/18 02:51:44;;;;;;;27.10;13.98;;;5.80;94.80;;;;;;5064062;28;20344;-69
2020/12/18 02:54:11;;;;;;;21.00;13.48;;;5.70;95.00;;;;;;5063639;28;20112;-68
2020/12/18 02:56:37;;;;;;;19.80;12.75;;;5.70;95.10;;;;;;5056996;28;20051;-68
2020/12/18 02:59:02;;;;;;;21.35;13.68;;;5.70;95.10;;;;;;5061633;28;20033;-68
2020/12/18 03:01:28;;;;;;;20.90;12.57;;;5.60;95.10;;;;;;5062647;28;20169;-68
2020/12/18 03:03:54;;;;;;;22.95;14.60;;;5.70;95.00;;;;;;5063103;28;20032;-69
2020/12/18 03:06:19;;;;;;;19.23;13.45;;;5.60;95.00;;;;;;5064513;28;20028;-69
2020/12/18 03:08:45;;;;;;;22.52;14.02;;;5.70;95.20;;;;;;5063672;28;20349;-68
2020/12/18 03:11:12;;;;;;;23.58;14.43;;;5.70;95.20;;;;;;5064292;28;20036;-68
2020/12/18 03:13:37;;;;;;;21.17;13.57;;;5.70;95.00;;;;;;5064206;28;20537;-69
2020/12/18 03:16:03;;;;;;;25.70;14.57;;;5.80;94.60;;;;;;5065611;28;20166;-69
2020/12/18 03:18:29;;;;;;;24.15;13.77;;;5.80;94.60;;;;;;5064376;28;20389;-69
2020/12/18 03:20:54;;;;;;;22.52;13.85;;;5.70;94.70;;;;;;5064269;28;20098;-69
2020/12/18 03:23:20;;;;;;;22.02;14.57;;;5.60;94.90;;;;;;5062626;28;20348;-67
2020/12/18 03:25:46;;;;;;;23.00;13.73;;;5.60;94.90;;;;;;5063682;28;20569;-68
2020/12/18 03:28:11;;;;;;;21.40;13.32;;;5.60;95.00;;;;;;5063363;28;20117;-70
2020/12/18 03:30:37;;;;;;;23.23;14.23;;;5.60;95.20;;;;;;5064251;28;20067;-68
2020/12/18 03:33:03;;;;;;;25.90;14.38;;;5.60;95.20;;;;;;5055417;28;20025;-68
2020/12/18 03:35:29;;;;;;;23.63;13.70;;;5.60;95.30;;;;;;5064278;28;20025;-68
2020/12/18 03:37:56;;;;;;;19.52;13.52;;;5.50;95.20;;;;;;5062296;28;20036;-68
2020/12/18 03:40:22;;;;;;;23.80;13.35;;;5.50;95.20;;;;;;5063650;28;20050;-69
2020/12/18 03:42:48;;;;;;;21.33;13.68;;;5.40;95.40;;;;;;5062590;28;20456;-68
2020/12/18 03:45:13;;;;;;;22.38;14.15;;;5.40;95.40;;;;;;5065246;28;20158;-68
2020/12/18 03:47:39;;;;;;;24.90;15.13;;;5.40;95.60;;;;;;5064322;28;20024;-68
2020/12/18 03:50:06;;;;;;;28.20;15.30;;;5.40;95.50;;;;;;5064332;28;20449;-69
2020/12/18 03:52:32;;;;;;;31.35;15.23;;;5.30;95.50;;;;;;5064005;28;20083;-68
2020/12/18 03:54:58;;;;;;;30.27;15.38;;;5.30;95.70;;;;;;5064193;28;20368;-67
2020/12/18 03:57:24;;;;;;;21.60;14.45;;;5.30;95.70;;;;;;5063557;28;20048;-68
2020/12/18 03:59:50;;;;;;;32.35;15.52;;;5.10;95.70;;;;;;5063407;28;20431;-68
2020/12/18 04:02:16;;;;;;;27.83;15.38;;;5.10;95.90;;;;;;5063684;28;20119;-70
2020/12/18 04:04:41;;;;;;;26.45;15.85;;;5.10;96.20;;;;;;5063236;28;20102;-67
2020/12/18 04:07:07;;;;;;;28.75;16.70;;;5.00;96.30;;;;;;5061093;28;20067;-68
2020/12/18 04:09:33;;;;;;;28.20;17.25;;;5.00;96.40;;;;;;5060632;28;20037;-67
2020/12/18 04:11:58;;;;;;;31.13;17.05;;;5.00;96.30;;;;;;5064469;28;20407;-68
2020/12/18 04:14:24;;;;;;;30.80;17.35;;;5.00;96.30;;;;;;5062704;28;20040;-68
2020/12/18 04:16:50;;;;;;;26.80;17.00;;;5.00;96.30;;;;;;5064531;28;20120;-68
2020/12/18 04:19:15;;;;;;;24.88;17.02;;;5.10;96.40;;;;;;5061640;28;20120;-68
2020/12/18 04:21:41;;;;;;;30.13;17.13;;;5.00;96.30;;;;;;5064595;28;20394;-68
2020/12/18 04:24:06;;;;;;;32.15;17.95;;;4.90;96.20;;;;;;5061072;28;20021;-67
2020/12/18 04:26:32;;;;;;;34.03;17.13;;;5.00;96.50;;;;;;5064805;28;20232;-67
2020/12/18 04:28:57;;;;;;;38.25;18.55;;;5.00;96.30;;;;;;5061102;28;20472;-68
2020/12/18 04:31:23;;;;;;;35.80;17.88;;;5.00;96.30;;;;;;5063193;28;20040;-67
2020/12/18 04:33:49;;;;;;;29.25;16.88;;;5.00;96.30;;;;;;5061922;28;20659;-67
2020/12/18 04:36:15;;;;;;;33.88;18.23;;;5.00;96.30;;;;;;5067103;28;20111;-67
2020/12/18 04:38:41;;;;;;;30.83;18.27;;;4.90;96.30;;;;;;5066827;28;20633;-68
2020/12/18 04:41:07;;;;;;;33.05;17.45;;;5.00;96.40;;;;;;5067821;28;20092;-68
2020/12/18 04:43:32;;;;;;;32.88;16.40;;;5.10;96.20;;;;;;5066107;28;20110;-68
2020/12/18 04:45:59;;;;;;;31.80;17.45;;;5.10;96.20;;;;;;5068256;28;20423;-68
2020/12/18 04:48:26;;;;;;;26.92;17.15;;;5.10;96.10;;;;;;5063802;28;20016;-68
2020/12/18 04:50:55;;;;;;;24.65;17.25;;;5.00;96.00;;;;;;5067223;28;20032;-67
2020/12/18 04:53:29;;;;;;;28.42;16.95;;;4.90;96.00;;;;;;5062119;28;20036;-67
2020/12/18 04:55:55;;;;;;;38.22;17.05;;;4.90;96.20;;;;;;5050481;28;20054;-69
2020/12/18 04:58:25;;;;;;;35.10;17.30;;;4.90;96.40;;;;;;5066343;28;20514;-67
2020/12/18 05:00:56;;;;;;;35.58;17.40;;;5.00;96.50;;;;;;5062336;28;20337;-68
2020/12/18 05:03:23;;;;;;;40.92;18.95;;;4.90;96.20;;;;;;5067129;28;20048;-67
2020/12/18 05:05:48;;;;;;;33.65;17.77;;;4.90;96.50;;;;;;5066276;28;20048;-66
2020/12/18 05:08:14;;;;;;;35.67;18.10;;;4.90;96.60;;;;;;5066069;28;20059;-68
2020/12/18 05:10:40;;;;;;;38.20;18.35;;;4.90;96.40;;;;;;5067488;28;20021;-67
2020/12/18 05:13:06;;;;;;;36.22;19.25;;;4.90;96.60;;;;;;5066896;28;20297;-67
2020/12/18 05:15:34;;;;;;;37.40;19.38;;;5.00;96.60;;;;;;5067747;28;20111;-67
2020/12/18 05:18:00;;;;;;;36.15;18.95;;;4.90;96.50;;;;;;5061081;28;20112;-68
2020/12/18 05:20:29;;;;;;;36.00;19.23;;;5.00;96.60;;;;;;5062463;28;20210;-67
2020/12/18 05:22:54;;;;;;;39.75;19.20;;;4.90;96.50;;;;;;5066766;28;20032;-68
2020/12/18 05:25:20;;;;;;;36.85;18.60;;;4.90;96.60;;;;;;5067120;28;20378;-68
2020/12/18 05:27:49;;;;;;;38.35;19.63;;;4.90;96.60;;;;;;5065617;28;20728;-68
2020/12/18 05:30:20;;;;;;;37.60;19.77;;;5.00;96.80;;;;;;5057625;28;20047;-67
2020/12/18 05:32:52;;;;;;;41.65;20.35;;;5.00;96.80;;;;;;5059591;28;20033;-67
2020/12/18 05:35:18;;;;;;;38.03;18.70;;;4.90;96.60;;;;;;5067921;28;20024;-68
2020/12/18 05:37:44;;;;;;;42.28;18.95;;;4.90;96.50;;;;;;5061762;28;20020;-68
2020/12/18 05:40:10;;;;;;;40.30;19.67;;;4.80;96.80;;;;;;5065801;28;20024;-68
2020/12/18 05:42:48;;;;;;;37.22;19.20;;;4.90;96.70;;;;;;5066669;28;20066;-68
2020/12/18 05:45:18;;;;;;;44.45;19.48;;;4.80;96.80;;;;;;5063267;28;20021;-68
2020/12/18 05:47:54;;;;;;;43.95;18.83;;;4.80;96.90;;;;;;5059828;28;20020;-68
2020/12/18 05:50:19;;;;;;;44.85;20.50;;;4.80;97.00;;;;;;5065317;28;20033;-69
2020/12/18 05:53:00;;;;;;;41.35;19.13;;;4.80;97.00;;;;;;5066066;28;20222;-67
2020/12/18 05:55:26;;;;;;;41.80;19.87;;;4.70;97.10;;;;;;5064379;28;20033;-67
2020/12/18 05:57:54;;;;;;;50.60;19.17;;;4.70;97.10;;;;;;5064957;28;20048;-67
2020/12/18 06:00:22;;;;;;;40.72;19.25;;;4.70;97.10;;;;;;5065355;28;20442;-68
2020/12/18 06:03:00;;;;;;;44.55;18.80;;;4.80;97.00;;;;;;5065474;28;20338;-68
2020/12/18 06:05:26;;;;;;;35.55;19.30;;;4.70;97.00;;;;;;5056281;28;20335;-67
2020/12/18 06:07:55;;;;;;;40.17;17.80;;;4.70;97.00;;;;;;5077766;28;20464;-67
2020/12/18 06:10:23;;;;;;;39.08;18.23;;;4.70;97.00;;;;;;5066065;28;20119;-68
2020/12/18 06:12:49;;;;;;;38.95;17.27;;;4.70;97.10;;;;;;5064906;28;20247;-68
2020/12/18 06:15:18;;;;;;;42.47;17.17;;;4.60;97.00;;;;;;5065229;28;20081;-69
2020/12/18 06:17:46;;;;;;;36.05;16.85;;;4.70;97.00;;;;;;5065179;28;20020;-67
2020/12/18 06:20:14;;;;;;;34.33;16.60;;;4.60;96.90;;;;;;5060928;28;20051;-67
2020/12/18 06:22:56;;;;;;;41.72;18.00;;;4.70;97.10;;;;;;5056596;28;20032;-68
2020/12/18 06:25:21;;;;;;;39.17;15.45;;;4.60;97.00;;;;;;5061746;28;20408;-68
2020/12/18 06:28:02;;;;;;;39.28;17.38;;;4.60;97.10;;;;;;5064138;28;20051;-68
2020/12/18 06:30:28;;;;;;;36.45;16.67;;;4.60;97.10;;;;;;5060580;28;20047;-68
2020/12/18 06:32:54;;;;;;;38.40;16.33;;;4.60;97.20;;;;;;5063167;28;21203;-70
2020/12/18 06:35:37;;;;;;;39.17;16.27;;;4.60;97.10;;;;;;5065756;28;20024;-69
2020/12/18 06:38:15;;;;;;;34.78;16.95;;;4.60;97.20;;;;;;5064959;28;20036;-69
2020/12/18 06:40:42;;;;;;;34.65;15.70;;;4.60;97.20;;;;;;5065385;28;20099;-69
2020/12/18 06:43:08;;;;;;;42.58;16.75;;;4.60;97.20;;;;;;5060933;28;20550;-69
2020/12/18 06:45:35;;;;;;;40.08;15.73;;;4.60;97.30;;;;;;5063727;28;20104;-68
2020/12/18 06:48:20;;;;;;;34.83;15.45;;;4.50;97.30;;;;;;5064759;28;20063;-68
2020/12/18 06:50:46;;;;;;;36.22;15.48;;;4.50;97.30;;;;;;5061684;28;20063;-68
2020/12/18 06:53:15;;;;;;;43.53;15.60;;;4.50;97.30;;;;;;5063533;28;20056;-70
2020/12/18 06:55:41;;;;;;;39.55;15.73;;;4.50;97.40;;;;;;5055138;28;20025;-69
2020/12/18 06:58:09;;;;;;;42.88;16.67;;;4.50;97.40;;;;;;5053911;28;20087;-70
2020/12/18 07:00:46;;;;;;;35.75;15.05;;;4.50;97.30;;;;;;5062264;28;20040;-68
2020/12/18 07:03:42;;;;;;;31.10;14.77;;;4.60;97.40;;;;;;5054328;28;20473;-68
2020/12/18 07:06:12;;;;;;;33.60;14.48;;;4.50;97.30;;;;;;5055191;28;20112;-69
2020/12/18 07:08:39;;;;;;;39.15;15.10;;;4.50;97.30;;;;;;5062749;28;20418;-69
2020/12/18 07:11:11;;;;;;;41.88;14.73;;;4.50;97.30;;;;;;5062298;28;20574;-68
2020/12/18 07:13:40;;;;;;;34.33;14.52;;;4.60;97.30;;;;;;5064305;28;20105;-69
2020/12/18 07:16:11;;;;;;;36.05;14.52;;;4.60;97.40;;;;;;5062303;28;20055;-69
2020/12/18 07:18:39;;;;;;;32.92;13.38;;;4.60;97.20;;;;;;5064621;28;20443;-70
2020/12/18 07:21:19;;;;;;;28.40;13.00;;;4.60;97.10;;;;;;5062937;28;20039;-68
2020/12/18 07:23:50;;;;;;;32.55;13.43;;;4.70;97.10;;;;;;5063047;28;20083;-68
2020/12/18 07:26:17;;;;;;;35.15;14.27;;;4.60;97.10;;;;;;5078161;28;20025;-70
2020/12/18 07:28:43;;;;;;;31.23;12.63;;;4.70;97.20;;;;;;5064310;28;20125;-68
2020/12/18 07:31:17;;;;;;;31.02;12.65;;;4.60;97.10;;;;;;5061678;28;20080;-69
2020/12/18 07:33:42;;;;;;;27.63;12.60;;;4.70;97.10;;;;;;5054473;28;20377;-69
2020/12/18 07:36:10;;;;;;;34.38;13.73;;;4.70;97.00;;;;;;5063513;28;20037;-70
2020/12/18 07:38:36;;;;;;;23.95;11.65;;;4.70;96.90;;;;;;5063693;28;20054;-69
2020/12/18 07:41:07;;;;;;;27.67;11.45;;;4.70;96.90;;;;;;5061288;28;20078;-68
2020/12/18 07:43:33;;;;;;;;;;;4.70;96.90;;;;;;5064728;28;20025;-68
2020/12/18 07:46:03;;;;;;;26.65;10.10;;;4.80;97.10;;;;;;5061312;28;19915;-68
2020/12/18 07:48:34;;;;;;;25.77;10.05;;;4.90;96.70;;;;;;5064948;28;20036;-69
2020/12/18 07:51:08;;;;;;;24.45;10.68;;;4.90;96.50;;;;;;5064902;28;20039;-70
2020/12/18 07:53:36;;;;;;;29.33;10.55;;;4.90;96.60;;;;;;5057487;28;20052;-69
2020/12/18 07:56:06;;;;;;;25.02;10.25;;;5.00;96.50;;;;;;5062024;28;20511;-69
2020/12/18 07:58:33;;;;;;;22.50;10.27;;;5.10;96.60;;;;;;5063480;28;20539;-69
2020/12/18 08:01:24;;;;;;;19.83;9.45;;;5.10;96.40;;;;;;5061563;28;20036;-68
2020/12/18 08:03:54;;;;;;;17.95;8.85;;;5.00;96.20;;;;;;5065501;28;20080;-69
2020/12/18 08:06:28;;;;;;;18.58;8.68;;;5.10;96.40;;;;;;5057783;28;20021;-68
2020/12/18 08:08:59;;;;;;;17.27;8.77;;;5.10;96.30;;;;;;5057297;28;20390;-69
2020/12/18 08:11:27;;;;;;;18.42;8.20;;;5.10;96.00;;;;;;5066819;28;20035;-69
2020/12/18 08:13:56;;;;;;;19.52;8.32;;;5.00;96.10;;;;;;5067343;28;20047;-68
2020/12/18 08:16:24;;;;;;;17.45;7.20;;;5.10;96.30;;;;;;5049098;28;20029;-68
2020/12/18 08:18:58;;;;;;;14.85;8.10;;;5.10;96.20;;;;;;5068179;28;20345;-68
2020/12/18 08:21:26;;;;;;;14.80;7.72;;;5.10;96.20;;;;;;5067726;28;20029;-68
2020/12/18 08:24:02;;;;;;;14.77;7.53;;;5.00;96.10;;;;;;5068127;28;20092;-68
2020/12/18 08:26:32;;;;;;;13.90;7.35;;;5.10;96.00;;;;;;5065796;28;20029;-69
2020/12/18 08:28:58;;;;;;;12.95;7.07;;;5.10;95.90;;;;;;5065686;28;20404;-69
2020/12/18 08:31:24;;;;;;;17.83;7.05;;;5.10;95.90;;;;;;5066051;28;20111;-68
2020/12/18 08:33:52;;;;;;;18.40;7.38;;;5.10;95.70;;;;;;5067349;28;20133;-68
2020/12/18 08:36:19;;;;;;;18.10;7.28;;;5.10;95.60;;;;;;5066249;28;20071;-68
2020/12/18 08:39:11;;;;;;;18.92;7.10;;;5.10;95.70;;;;;;5052550;28;20032;-69
2020/12/18 08:41:56;;;;;;;13.48;7.18;;;5.10;95.80;;;;;;5060468;28;20052;-68
2020/12/18 08:44:43;;;;;;;15.52;7.35;;;5.20;95.60;;;;;;5056653;28;20044;-69
2020/12/18 08:47:27;;;;;;;15.27;7.32;;;5.20;95.50;;;;;;5062294;28;20052;-69
2020/12/18 08:49:55;;;;;;;11.88;6.97;;;5.30;95.30;;;;;;5062156;28;20108;-69
2020/12/18 08:52:25;;;;;;;13.05;7.03;;;5.40;95.10;;;;;;5063483;28;20389;-70
2020/12/18 08:55:01;;;;;;;14.82;7.53;;;5.40;95.00;;;;;;5064385;28;20032;-70
2020/12/18 08:57:31;;;;;;;11.05;6.80;;;5.40;94.90;;;;;;5061242;28;20220;-69
2020/12/18 09:00:01;;;;;;;13.55;6.22;;;5.40;94.70;;;;;;5050276;28;20523;-69
2020/12/18 09:02:28;;;;;;;13.63;6.82;;;5.40;94.50;;;;;;5045277;28;20364;-71
2020/12/18 09:05:14;;;;;;;12.55;6.22;;;5.40;94.60;;;;;;5050401;28;20105;-69
2020/12/18 09:07:50;;;;;;;11.23;6.45;;;5.40;94.60;;;;;;5049285;28;20119;-69
2020/12/18 09:10:33;;;;;;;13.68;6.75;;;5.50;94.50;;;;;;5049439;28;20032;-69
2020/12/18 09:13:10;;;;;;;10.13;5.90;;;5.40;94.50;;;;;;5060867;28;20046;-68
2020/12/18 09:15:36;;;;;;;10.30;6.00;;;5.60;93.90;;;;;;5046317;28;20045;-69
2020/12/18 09:18:05;;;;;;;11.43;5.63;;;5.60;94.10;;;;;;5035632;28;20102;-70
2020/12/18 09:20:33;;;;;;;9.95;5.80;;;5.60;94.10;;;;;;5043613;28;20247;-70
2020/12/18 09:23:29;;;;;;;12.48;5.95;;;5.60;94.10;;;;;;5047656;28;20612;-68
2020/12/18 09:25:54;;;;;;;10.82;5.15;;;5.70;93.60;;;;;;5051227;28;20115;-68
2020/12/18 09:28:21;;;;;;;13.63;6.03;;;5.70;93.90;;;;;;5038749;28;20050;-71
2020/12/18 09:30:47;;;;;;;11.70;5.35;;;5.90;93.50;;;;;;5050791;28;20028;-70
2020/12/18 09:33:17;;;;;;;9.77;4.55;;;5.90;93.20;;;;;;5048700;28;20176;-69
2020/12/18 09:35:43;;;;;;;13.73;5.22;;;6.00;93.10;;;;;;5051888;28;20126;-68
2020/12/18 09:38:10;;;;;;;11.32;4.78;;;6.10;92.80;;;;;;5037752;28;20508;-69
2020/12/18 09:40:36;;;;;;;12.68;5.40;;;6.20;92.50;;;;;;5049122;28;20108;-69
2020/12/18 09:43:02;;;;;;;12.32;4.43;;;6.30;92.20;;;;;;5049994;28;20063;-68
2020/12/18 09:45:28;;;;;;;9.98;4.10;;;6.30;92.50;;;;;;5050951;28;20485;-68
2020/12/18 09:47:53;;;;;;;10.85;4.68;;;6.30;92.30;;;;;;5037506;28;20087;-71
2020/12/18 09:50:19;;;;;;;9.48;4.20;;;6.50;92.20;;;;;;5051891;28;20336;-69
2020/12/18 09:52:46;;;;;;;9.18;4.53;;;6.50;92.00;;;;;;5048984;28;20044;-69
2020/12/18 09:55:12;;;;;;;9.38;4.40;;;6.80;91.50;;;;;;5048303;28;20084;-70
2020/12/18 09:57:38;;;;;;;9.70;3.83;;;6.80;91.30;;;;;;5038861;28;20144;-69
2020/12/18 10:00:05;;;;;;;8.73;4.22;;;6.80;91.30;;;;;;5049330;28;20113;-69
2020/12/18 10:02:31;;;;;;;5.40;3.70;;;6.80;91.10;;;;;;5049333;28;20040;-69
2020/12/18 10:04:57;;;;;;;9.95;3.85;;;6.80;91.10;;;;;;5048373;28;20074;-69
2020/12/18 10:07:23;;;;;;;6.82;3.25;;;6.80;91.40;;;;;;5041213;28;20021;-67
2020/12/18 10:09:49;;;;;;;7.18;3.70;;;6.90;91.50;;;;;;5044502;28;20045;-71
2020/12/18 10:12:15;;;;;;;9.27;3.58;;;7.00;90.60;;;;;;5046305;28;20072;-69
2020/12/18 10:14:41;;;;;;;6.60;3.40;;;7.10;90.60;;;;;;5051178;28;20051;-69
2020/12/18 10:17:07;;;;;;;10.13;3.85;;;7.10;90.10;;;;;;5035758;28;20028;-69
2020/12/18 10:19:34;;;;;;;8.35;3.72;;;7.10;90.30;;;;;;5046074;28;20071;-70
2020/12/18 10:22:00;;;;;;;8.63;3.60;;;7.10;90.00;;;;;;5043687;28;20127;-70
2020/12/18 10:24:25;;;;;;;8.27;3.45;;;7.20;90.30;;;;;;5051155;28;20472;-69
2020/12/18 10:26:51;;;;;;;7.00;2.92;;;7.20;89.90;;;;;;5044608;28;20021;-70
2020/12/18 10:29:16;;;;;;;5.97;3.50;;;7.20;90.30;;;;;;5057364;28;20295;-70
2020/12/18 10:31:42;;;;;;;13.93;3.42;;;7.30;89.70;;;;;;5062631;28;20099;-69
2020/12/18 10:34:08;;;;;;;8.55;2.83;;;7.40;89.90;;;;;;5057619;28;20083;-70
2020/12/18 10:36:33;;;;;;;6.40;3.40;;;7.40;90.00;;;;;;5047821;28;20151;-69
2020/12/18 10:38:59;;;;;;;6.38;3.28;;;7.40;89.70;;;;;;5059747;28;20047;-69
2020/12/18 10:41:24;;;;;;;7.97;3.17;;;7.60;89.30;;;;;;5054703;28;20029;-69
2020/12/18 10:43:50;;;;;;;10.23;3.47;;;7.70;89.30;;;;;;5050997;28;20042;-70
2020/12/18 10:46:16;;;;;;;7.25;3.13;;;7.70;89.10;;;;;;5057890;28;20027;-69
2020/12/18 10:48:41;;;;;;;9.45;3.20;;;7.70;88.80;;;;;;5061336;28;20029;-70
2020/12/18 10:51:07;;;;;;;7.40;2.80;;;7.70;87.90;;;;;;5052798;28;20024;-68
2020/12/18 10:53:32;;;;;;;9.93;3.20;;;7.70;88.90;;;;;;5057699;28;20119;-70
2020/12/18 10:56:00;;;;;;;9.70;3.08;;;7.80;88.00;;;;;;5054118;28;20055;-69
2020/12/18 10:58:26;;;;;;;5.72;3.25;;;7.90;89.20;;;;;;5060680;28;20031;-70
2020/12/18 11:00:51;;;;;;;5.82;3.15;;;8.00;88.70;;;;;;5054776;28;20024;-69
2020/12/18 11:03:17;;;;;;;10.05;3.53;;;7.90;87.40;;;;;;5051433;28;20112;-71
2020/12/18 11:05:42;;;;;;;10.32;3.38;;;7.90;88.20;;;;;;5059473;28;20392;-69
2020/12/18 11:08:08;;;;;;;9.32;3.72;;;8.00;87.60;;;;;;5060842;28;20535;-68
2020/12/18 11:10:34;;;;;;;7.53;2.92;;;8.10;87.90;;;;;;5056315;28;20425;-69
2020/12/18 11:13:00;;;;;;;8.85;2.92;;;8.10;86.90;;;;;;5056116;28;20211;-70
2020/12/18 11:15:25;;;;;;;9.68;3.50;;;8.10;87.00;;;;;;5054606;28;20028;-69
2020/12/18 11:17:52;;;;;;;10.55;3.30;;;8.20;87.80;;;;;;5072295;28;20056;-71
2020/12/18 11:20:17;;;;;;;6.30;2.78;;;8.20;87.20;;;;;;5050704;28;20051;-71
2020/12/18 11:22:43;;;;;;;6.90;3.00;;;8.30;86.80;;;;;;5055076;28;20039;-70
2020/12/18 11:25:08;;;;;;;8.52;2.80;;;8.30;86.70;;;;;;5059647;28;20056;-70
2020/12/18 11:27:34;;;;;;;7.65;2.90;;;8.50;86.50;;;;;;5057196;28;20087;-69
2020/12/18 11:30:00;;;;;;;8.70;2.80;;;8.50;86.70;;;;;;5058539;28;20166;-70
2020/12/18 11:32:25;;;;;;;5.82;2.53;;;8.60;85.90;;;;;;5060582;28;20032;-69
2020/12/18 11:34:51;;;;;;;6.47;2.88;;;8.60;85.90;;;;;;5054058;28;20508;-70
2020/12/18 11:37:16;;;;;;;6.28;2.80;;;8.80;86.20;;;;;;5055784;28;20193;-69
2020/12/18 11:39:42;;;;;;;7.00;2.58;;;8.80;86.00;;;;;;5056430;28;20024;-70
2020/12/18 11:42:08;;;;;;;7.40;2.50;;;8.60;85.50;;;;;;5060928;28;20170;-70
2020/12/18 11:44:33;;;;;;;8.10;2.60;;;8.70;86.30;;;;;;5063456;28;20458;-71
2020/12/18 11:46:59;;;;;;;6.35;2.15;;;8.70;86.10;;;;;;5066596;28;20059;-71
2020/12/18 11:49:25;;;;;;;6.32;2.20;;;8.80;85.40;;;;;;5062372;28;20134;-68
2020/12/18 11:51:50;;;;;;;8.77;2.65;;;8.90;85.40;;;;;;5058471;28;20400;-69
2020/12/18 11:54:16;;;;;;;8.35;2.17;;;9.00;85.00;;;;;;5066300;28;20107;-70
2020/12/18 11:56:47;;;;;;;6.22;2.45;;;9.10;85.00;;;;;;5053053;28;20028;-70
2020/12/18 11:59:13;;;;;;;7.28;2.25;;;9.10;84.10;;;;;;5061833;28;20108;-69
2020/12/18 12:01:38;;;;;;;3.42;1.52;;;9.10;84.10;;;;;;5067907;28;20185;-70
2020/12/18 12:04:04;;;;;;;4.70;2.35;;;9.10;83.70;;;;;;5064223;28;20025;-69
2020/12/18 12:06:30;;;;;;;4.25;1.70;;;9.10;85.20;;;;;;5064230;28;20048;-69
2020/12/18 12:09:00;;;;;;;6.18;2.40;;;9.10;84.50;;;;;;5067044;28;20365;-70
2020/12/18 12:11:25;;;;;;;5.90;2.00;;;9.20;85.10;;;;;;5066749;28;20047;-70
2020/12/18 12:13:51;;;;;;;4.63;1.98;;;9.20;84.40;;;;;;5061436;28;20476;-69
2020/12/18 12:16:16;;;;;;;5.63;2.05;;;9.10;83.90;;;;;;5064766;28;20029;-69
2020/12/18 12:18:42;;;;;;;5.22;1.88;;;9.20;83.70;;;;;;5065679;28;20024;-69
2020/12/18 12:21:08;;;;;;;5.93;1.92;;;9.20;83.60;;;;;;5070041;28;20572;-69
2020/12/18 12:23:34;;;;;;;5.07;2.00;;;9.20;82.80;;;;;;5066266;28;20036;-70
2020/12/18 12:25:59;;;;;;;6.07;2.30;;;9.30;83.70;;;;;;5071210;28;20104;-69
2020/12/18 12:28:25;;;;;;;3.35;1.80;;;9.30;83.90;;;;;;5067699;28;20031;-68
2020/12/18 12:30:51;;;;;;;4.53;2.00;;;9.30;84.00;;;;;;5068218;28;20024;-70
2020/12/18 12:33:16;;;;;;;4.50;1.50;;;9.20;83.60;;;;;;5068849;28;20037;-71
2020/12/18 12:35:43;;;;;;;5.18;2.03;;;9.20;83.90;;;;;;5067623;28;20512;-69
2020/12/18 12:38:09;;;;;;;5.22;1.85;;;9.10;84.50;;;;;;5066772;28;20498;-69
2020/12/18 12:40:35;;;;;;;5.20;2.38;;;9.00;84.00;;;;;;5068896;28;20084;-70
2020/12/18 12:43:00;;;;;;;7.10;2.08;;;8.80;84.70;;;;;;5057357;28;20050;-69
2020/12/18 12:45:26;;;;;;;9.27;3.75;;;8.80;85.20;;;;;;5069004;28;20443;-69